createdAt,value
2019-01-04T00:01:32.381Z,7.40
2019-01-04T00:04:01.891Z,7.50
2019-01-04T00:06:30.696Z,7.50
2019-01-04T00:08:59.409Z,7.40
2019-01-04T00:11:28.095Z,7.50
2019-01-04T00:13:56.801Z,7.40
2019-01-04T00:16:25.489Z,7.50
2019-01-04T00:18:54.157Z,7.60
2019-01-04T00:21:22.880Z,7.50
2019-01-04T00:23:51.545Z,7.50
2019-01-04T00:26:20.335Z,7.40
2019-01-04T00:28:49.054Z,7.40
2019-01-04T00:31:17.724Z,7.30
2019-01-04T00:33:46.422Z,7.00
2019-01-04T00:36:15.134Z,7.10
2019-01-04T00:38:43.825Z,7.10
2019-01-04T00:41:12.491Z,7.10
2019-01-04T00:43:41.267Z,7.30
2019-01-04T00:46:09.924Z,7.20
2019-01-04T00:48:38.615Z,7.30
2019-01-04T00:51:07.387Z,7.40
2019-01-04T00:53:36.106Z,7.50
2019-01-04T00:56:23.015Z,7.60
2019-01-04T00:59:14.462Z,7.70
2019-01-04T01:01:57.975Z,7.60
2019-01-04T01:04:44.901Z,7.90
2019-01-04T01:07:34.800Z,7.80
2019-01-04T01:10:08.950Z,7.50
2019-01-04T01:13:03.542Z,7.30
2019-01-04T01:15:50.315Z,7.10
2019-01-04T01:18:34.006Z,7.00
2019-01-04T01:21:25.425Z,7.20
2019-01-04T01:24:13.847Z,7.30
2019-01-04T01:27:19.143Z,7.50
2019-01-04T01:30:02.548Z,7.40
2019-01-04T01:32:51.094Z,7.30
2019-01-04T01:35:48.531Z,7.50
2019-01-04T01:38:45.640Z,7.50
2019-01-04T01:41:46.333Z,7.30
2019-01-04T01:44:35.491Z,7.20
2019-01-04T01:47:13.114Z,7.10
2019-01-04T01:49:44.739Z,7.10
2019-01-04T01:52:16.384Z,7.10
2019-01-04T01:54:45.078Z,7.20
2019-01-04T01:57:13.781Z,7.10
2019-01-04T01:59:42.504Z,7.00
2019-01-04T02:02:11.257Z,7.00
2019-01-04T02:04:39.974Z,7.30
2019-01-04T02:07:08.638Z,7.40
2019-01-04T02:09:37.352Z,7.20
2019-01-04T02:12:06.036Z,7.30
2019-01-04T02:14:34.747Z,7.50
2019-01-04T02:17:03.428Z,7.50
2019-01-04T02:19:32.154Z,7.50
2019-01-04T02:22:00.836Z,7.30
2019-01-04T02:24:29.523Z,7.50
2019-01-04T02:26:58.242Z,7.40
2019-01-04T02:29:26.959Z,7.50
2019-01-04T02:31:55.676Z,7.40
2019-01-04T02:34:24.457Z,7.30
2019-01-04T02:36:53.124Z,7.60
2019-01-04T02:39:21.823Z,7.80
2019-01-04T02:41:50.528Z,8.00
2019-01-04T02:44:19.237Z,8.10
2019-01-04T02:46:47.919Z,8.00
2019-01-04T02:49:16.628Z,7.80
2019-01-04T02:51:45.303Z,8.10
2019-01-04T02:54:14.006Z,8.00
2019-01-04T02:56:42.685Z,8.30
2019-01-04T02:59:12.355Z,8.20
2019-01-04T03:01:41.235Z,8.10
2019-01-04T03:04:09.945Z,8.00
2019-01-04T03:06:38.621Z,8.10
2019-01-04T03:09:07.306Z,8.20
2019-01-04T03:11:36.028Z,8.30
2019-01-04T03:14:04.772Z,8.00
2019-01-04T03:16:33.474Z,8.20
2019-01-04T03:19:02.187Z,8.10
2019-01-04T03:21:30.879Z,8.00
2019-01-04T03:23:59.518Z,7.90
2019-01-04T03:26:28.238Z,8.10
2019-01-04T03:28:56.952Z,8.10
2019-01-04T03:31:25.635Z,8.20
2019-01-04T03:33:54.562Z,8.20
2019-01-04T03:36:23.280Z,8.00
2019-01-04T03:38:52.000Z,8.00
2019-01-04T03:41:20.716Z,8.00
2019-01-04T03:43:49.417Z,8.10
2019-01-04T03:46:18.103Z,8.30
2019-01-04T03:48:46.806Z,8.00
2019-01-04T03:51:15.520Z,8.10
2019-01-04T03:53:44.209Z,8.20
2019-01-04T03:56:12.942Z,8.10
2019-01-04T03:58:41.601Z,8.30
2019-01-04T04:01:10.314Z,8.10
2019-01-04T04:03:39.008Z,8.30
2019-01-04T04:06:07.739Z,8.30
2019-01-04T04:08:36.405Z,8.10
2019-01-04T04:11:05.293Z,8.20
2019-01-04T04:13:34.071Z,8.10
2019-01-04T04:16:02.780Z,7.80
2019-01-04T04:18:31.548Z,7.90
2019-01-04T04:21:00.303Z,7.90
2019-01-04T04:23:29.011Z,8.00
2019-01-04T04:25:57.699Z,8.00
2019-01-04T04:28:26.383Z,7.90
2019-01-04T04:30:55.198Z,7.80
2019-01-04T04:33:23.936Z,7.90
2019-01-04T04:35:52.593Z,7.80
2019-01-04T04:38:21.300Z,7.70
2019-01-04T04:40:50.285Z,8.00
2019-01-04T04:43:19.099Z,7.90
2019-01-04T04:45:47.771Z,7.80
2019-01-04T04:48:16.462Z,7.80
2019-01-04T04:50:45.179Z,7.70
2019-01-04T04:53:13.986Z,8.10
2019-01-04T04:55:42.676Z,8.00
2019-01-04T04:58:11.478Z,8.00
2019-01-04T05:00:40.198Z,7.90
2019-01-04T05:03:09.014Z,8.00
2019-01-04T05:05:37.732Z,8.10
2019-01-04T05:08:06.415Z,8.20
2019-01-04T05:10:35.174Z,7.80
2019-01-04T05:13:03.878Z,8.20
2019-01-04T05:15:32.563Z,8.10
2019-01-04T05:18:01.264Z,8.10
2019-01-04T05:20:29.943Z,8.20
2019-01-04T05:22:58.636Z,8.00
2019-01-04T05:25:27.343Z,8.30
2019-01-04T05:27:56.028Z,8.40
2019-01-04T05:30:24.714Z,8.30
2019-01-04T05:32:53.399Z,8.20
2019-01-04T05:35:22.090Z,8.40
2019-01-04T05:37:50.776Z,8.40
2019-01-04T05:40:19.539Z,8.30
2019-01-04T05:42:48.226Z,8.30
2019-01-04T05:45:16.965Z,8.40
2019-01-04T05:47:45.715Z,8.50
2019-01-04T05:50:14.490Z,8.40
2019-01-04T05:52:43.169Z,8.30
2019-01-04T05:55:11.851Z,8.30
2019-01-04T05:57:40.667Z,8.40
2019-01-04T06:00:10.649Z,8.40
2019-01-04T06:02:39.324Z,8.30
2019-01-04T06:05:08.045Z,8.50
2019-01-04T06:07:36.748Z,8.40
2019-01-04T06:10:06.926Z,8.30
2019-01-04T06:12:35.636Z,8.30
2019-01-04T06:15:05.127Z,8.10
2019-01-04T06:17:33.791Z,8.00
2019-01-04T06:20:02.588Z,8.30
2019-01-04T06:22:31.405Z,8.00
2019-01-04T06:25:00.235Z,8.30
2019-01-04T06:27:28.983Z,8.00
2019-01-04T06:29:57.644Z,8.10
2019-01-04T06:32:26.359Z,8.00
2019-01-04T06:34:55.030Z,8.20
2019-01-04T06:37:23.746Z,8.10
2019-01-04T06:39:52.532Z,8.20
2019-01-04T06:42:21.268Z,8.40
2019-01-04T06:44:50.031Z,8.10
2019-01-04T06:47:18.739Z,8.10
2019-01-04T06:49:47.431Z,8.20
2019-01-04T06:52:16.119Z,8.40
2019-01-04T06:55:10.792Z,8.50
2019-01-04T06:57:39.480Z,8.30
2019-01-04T07:00:09.260Z,8.10
2019-01-04T07:02:37.961Z,8.10
2019-01-04T07:05:07.697Z,8.30
2019-01-04T07:07:36.382Z,8.50
2019-01-04T07:10:07.224Z,8.30
2019-01-04T07:12:35.928Z,8.30
2019-01-04T07:15:06.109Z,8.10
2019-01-04T07:17:34.773Z,8.40
2019-01-04T07:20:03.781Z,8.40
2019-01-04T07:22:32.462Z,8.40
2019-01-04T07:25:01.177Z,8.40
2019-01-04T07:27:29.883Z,8.00
2019-01-04T07:29:58.592Z,8.00
2019-01-04T07:32:27.278Z,7.90
2019-01-04T07:34:55.968Z,7.70
2019-01-04T07:37:24.698Z,7.70
2019-01-04T07:39:53.385Z,7.80
2019-01-04T07:42:22.107Z,7.90
2019-01-04T07:44:50.787Z,7.80
2019-01-04T07:47:19.515Z,7.80
2019-01-04T07:49:48.201Z,7.60
2019-01-04T07:52:16.867Z,7.70
2019-01-04T07:54:45.679Z,7.80
2019-01-04T07:57:14.402Z,7.80
2019-01-04T07:59:43.802Z,7.90
2019-01-04T08:02:38.946Z,7.80
2019-01-04T08:05:15.990Z,7.80
2019-01-04T08:07:44.687Z,8.00
2019-01-04T08:10:13.384Z,7.80
2019-01-04T08:12:42.090Z,7.60
2019-01-04T08:15:11.325Z,7.40
2019-01-04T08:17:40.028Z,7.40
2019-01-04T08:20:10.541Z,7.70
2019-01-04T08:22:39.346Z,7.50
2019-01-04T08:25:08.718Z,7.90
2019-01-04T08:27:37.424Z,7.80
2019-01-04T08:30:09.291Z,7.90
2019-01-04T08:32:38.022Z,7.70
2019-01-04T08:35:06.685Z,7.80
2019-01-04T08:37:35.498Z,7.80
2019-01-04T08:40:05.400Z,7.70
2019-01-04T08:42:35.257Z,7.70
2019-01-04T08:45:04.036Z,7.80
2019-01-04T08:47:32.767Z,7.60
2019-01-04T08:50:01.503Z,7.90
2019-01-04T08:52:30.388Z,7.80
2019-01-04T08:54:59.064Z,7.90
2019-01-04T08:57:27.891Z,7.70
2019-01-04T08:59:56.588Z,7.30
2019-01-04T09:02:25.304Z,7.40
2019-01-04T09:04:54.038Z,7.50
2019-01-04T09:07:22.804Z,7.40
2019-01-04T09:09:51.457Z,7.50
2019-01-04T09:12:20.163Z,7.40
2019-01-04T09:14:48.897Z,7.40
2019-01-04T09:17:17.577Z,7.20
2019-01-04T09:19:46.283Z,7.40
2019-01-04T09:22:15.817Z,7.10
2019-01-04T09:24:44.673Z,7.10
2019-01-04T09:27:13.380Z,7.10
2019-01-04T09:29:42.096Z,7.30
2019-01-04T09:32:10.790Z,7.10
2019-01-04T09:34:39.526Z,7.20
2019-01-04T09:37:08.407Z,7.20
2019-01-04T09:39:37.179Z,7.20
2019-01-04T09:42:06.025Z,7.10
2019-01-04T09:44:34.751Z,7.10
2019-01-04T09:47:03.448Z,7.10
2019-01-04T09:49:32.719Z,7.20
2019-01-04T09:52:01.400Z,7.20
2019-01-04T09:54:30.164Z,7.30
2019-01-04T09:56:58.858Z,7.20
2019-01-04T09:59:27.596Z,7.30
2019-01-04T10:01:56.296Z,7.10
2019-01-04T10:04:24.966Z,7.30
2019-01-04T10:06:53.704Z,7.10
2019-01-04T10:09:22.398Z,7.00
2019-01-04T10:11:51.104Z,7.20
2019-01-04T10:14:19.796Z,7.10
2019-01-04T10:16:48.522Z,7.10
2019-01-04T10:19:17.225Z,7.00
2019-01-04T10:21:45.926Z,7.00
2019-01-04T10:24:14.597Z,7.20
2019-01-04T10:26:43.464Z,7.10
2019-01-04T10:29:12.176Z,7.00
2019-01-04T10:31:40.949Z,7.00
2019-01-04T10:34:09.725Z,7.00
2019-01-04T10:36:38.407Z,7.10
2019-01-04T10:39:07.618Z,7.20
2019-01-04T10:41:36.305Z,6.90
2019-01-04T10:44:05.079Z,7.10
2019-01-04T10:46:34.038Z,7.10
2019-01-04T10:49:02.757Z,7.00
2019-01-04T10:51:31.475Z,7.00
2019-01-04T10:54:00.165Z,7.00
2019-01-04T10:56:28.872Z,7.20
2019-01-04T10:58:57.546Z,7.30
2019-01-04T11:01:26.267Z,7.00
2019-01-04T11:03:54.976Z,7.30
2019-01-04T11:06:23.689Z,7.20
2019-01-04T11:08:52.388Z,7.20
2019-01-04T11:11:21.081Z,7.30
2019-01-04T11:13:49.792Z,7.50
2019-01-04T11:16:18.502Z,7.30
2019-01-04T11:18:47.223Z,7.20
2019-01-04T11:21:15.940Z,7.30
2019-01-04T11:24:04.235Z,7.50
2019-01-04T11:26:39.031Z,7.30
2019-01-04T11:29:30.397Z,7.20
2019-01-04T11:32:25.795Z,7.10
2019-01-04T11:35:14.059Z,7.00
2019-01-04T11:37:57.778Z,7.00
2019-01-04T11:40:52.454Z,6.90
2019-01-04T11:43:50.096Z,7.10
2019-01-04T11:46:27.720Z,7.20
2019-01-04T11:48:59.507Z,6.90
2019-01-04T11:51:31.154Z,6.70
2019-01-04T11:53:59.962Z,7.10
2019-01-04T11:56:28.632Z,6.80
2019-01-04T11:58:57.378Z,6.90
2019-01-04T12:01:26.080Z,7.10
2019-01-04T12:03:58.119Z,7.10
2019-01-04T12:06:27.288Z,7.30
2019-01-04T12:08:56.109Z,7.50
2019-01-04T12:11:24.902Z,7.50
2019-01-04T12:13:53.699Z,7.20
2019-01-04T12:16:22.358Z,7.40
2019-01-04T12:18:51.129Z,7.40
2019-01-04T12:21:19.818Z,7.50
2019-01-04T12:23:48.534Z,7.30
2019-01-04T12:26:17.230Z,7.60
2019-01-04T12:28:46.488Z,7.40
2019-01-04T12:31:15.155Z,7.50
2019-01-04T12:33:44.236Z,7.30
2019-01-04T12:36:12.905Z,7.20
2019-01-04T12:38:41.570Z,7.30
2019-01-04T12:41:10.268Z,7.50
2019-01-04T12:43:38.927Z,7.50
2019-01-04T12:46:07.773Z,7.60
2019-01-04T12:48:36.583Z,7.30
2019-01-04T12:51:05.315Z,7.30
2019-01-04T12:53:34.074Z,7.50
2019-01-04T12:56:02.771Z,7.10
2019-01-04T12:58:31.447Z,7.50
2019-01-04T13:01:00.180Z,7.30
2019-01-04T13:03:28.908Z,7.40
2019-01-04T13:05:57.578Z,7.50
2019-01-04T13:08:26.508Z,7.30
2019-01-04T13:10:56.659Z,7.30
2019-01-04T13:13:25.342Z,7.40
2019-01-04T13:15:54.311Z,7.30
2019-01-04T13:18:22.991Z,7.10
2019-01-04T13:20:51.711Z,7.20
2019-01-04T13:23:20.477Z,7.10
2019-01-04T13:25:49.239Z,7.10
2019-01-04T13:28:17.924Z,7.40
2019-01-04T13:30:46.779Z,7.30
2019-01-04T13:33:15.767Z,7.50
2019-01-04T13:35:44.420Z,7.30
2019-01-04T13:38:13.105Z,7.10
2019-01-04T13:40:41.811Z,7.20
2019-01-04T13:43:10.487Z,7.30
2019-01-04T13:45:39.337Z,7.30
2019-01-04T13:48:08.082Z,7.20
2019-01-04T13:50:36.773Z,7.20
2019-01-04T13:53:05.464Z,7.00
2019-01-04T13:55:34.181Z,7.10
2019-01-04T13:58:02.839Z,6.80
2019-01-04T14:00:31.600Z,7.00
2019-01-04T14:03:00.303Z,6.60
2019-01-04T14:05:28.974Z,6.80
2019-01-04T14:07:57.882Z,7.00
2019-01-04T14:10:26.560Z,7.00
2019-01-04T14:12:55.240Z,6.80
2019-01-04T14:15:23.950Z,7.10
2019-01-04T14:17:52.627Z,7.00
2019-01-04T14:20:21.508Z,7.20
2019-01-04T14:22:50.236Z,7.20
2019-01-04T14:25:18.919Z,7.00
2019-01-04T14:27:47.971Z,7.10
2019-01-04T14:30:16.646Z,6.80
2019-01-04T14:32:45.332Z,7.20
2019-01-04T14:35:14.346Z,6.90
2019-01-04T14:37:43.016Z,7.20
2019-01-04T14:40:11.831Z,7.00
2019-01-04T14:42:40.540Z,7.10
2019-01-04T14:45:09.392Z,7.10
2019-01-04T14:47:38.171Z,7.20
2019-01-04T14:50:09.762Z,7.00
2019-01-04T14:52:39.140Z,7.30
2019-01-04T14:55:07.962Z,7.20
2019-01-04T14:57:37.604Z,6.90
2019-01-04T15:00:11.573Z,6.80
2019-01-04T15:02:40.312Z,7.10
2019-01-04T15:05:09.015Z,7.00
2019-01-04T15:07:37.728Z,7.00
2019-01-04T15:10:08.136Z,7.20
2019-01-04T15:12:36.837Z,7.10
2019-01-04T15:15:06.738Z,7.00
2019-01-04T15:17:35.567Z,7.30
2019-01-04T15:20:05.978Z,7.20
2019-01-04T15:22:34.685Z,7.30
2019-01-04T15:25:03.382Z,7.00
2019-01-04T15:27:32.066Z,6.90
2019-01-04T15:30:01.119Z,7.00
2019-01-04T15:32:29.876Z,7.20
2019-01-04T15:34:58.544Z,7.30
2019-01-04T15:37:27.528Z,7.10
2019-01-04T15:39:56.216Z,7.00
2019-01-04T15:42:24.886Z,6.90
2019-01-04T15:44:53.574Z,7.20
2019-01-04T15:47:22.274Z,7.10
2019-01-04T15:49:50.983Z,7.10
2019-01-04T15:52:19.655Z,7.10
2019-01-04T15:54:48.603Z,7.10
2019-01-04T15:57:17.250Z,7.10
2019-01-04T15:59:45.931Z,7.00
2019-01-04T16:02:14.663Z,7.10
2019-01-04T16:04:43.441Z,6.90
2019-01-04T16:07:12.150Z,7.10
2019-01-04T16:09:40.904Z,6.90
2019-01-04T16:12:09.729Z,6.80
2019-01-04T16:14:38.401Z,7.00
2019-01-04T16:17:12.117Z,6.80
2019-01-04T16:19:37.493Z,6.90
2019-01-04T16:22:06.178Z,6.60
2019-01-04T16:24:34.853Z,6.90
2019-01-04T16:27:03.576Z,7.00
2019-01-04T16:29:32.283Z,6.70
2019-01-04T16:32:00.983Z,6.80
2019-01-04T16:34:29.679Z,7.00
2019-01-04T16:36:58.379Z,6.80
2019-01-04T16:39:27.172Z,6.70
2019-01-04T16:41:55.845Z,6.70
2019-01-04T16:44:24.540Z,6.90
2019-01-04T16:46:53.219Z,7.00
2019-01-04T16:49:21.934Z,6.70
2019-01-04T16:51:50.600Z,6.90
2019-01-04T16:54:19.313Z,7.00
2019-01-04T16:56:48.058Z,7.00
2019-01-04T16:59:16.769Z,7.20
2019-01-04T17:01:45.486Z,7.20
2019-01-04T17:04:14.187Z,7.10
2019-01-04T17:06:42.870Z,7.30
2019-01-04T17:09:11.745Z,7.10
2019-01-04T17:11:40.419Z,7.00
2019-01-04T17:14:09.125Z,6.90
2019-01-04T17:16:37.801Z,7.10
2019-01-04T17:19:06.510Z,7.10
2019-01-04T17:21:35.206Z,7.00
2019-01-04T17:24:03.907Z,7.20
2019-01-04T17:26:32.580Z,7.10
2019-01-04T17:29:01.289Z,7.10
2019-01-04T17:31:29.981Z,7.00
2019-01-04T17:33:58.649Z,7.20
2019-01-04T17:36:27.363Z,6.70
2019-01-04T17:38:56.039Z,7.00
2019-01-04T17:41:24.734Z,7.00
2019-01-04T17:43:53.460Z,7.00
2019-01-04T17:46:22.113Z,7.10
2019-01-04T17:48:50.849Z,7.00
2019-01-04T17:51:19.552Z,7.00
2019-01-04T17:53:48.234Z,7.10
2019-01-04T17:56:17.366Z,6.80
2019-01-04T17:58:46.157Z,7.00
2019-01-04T18:01:14.852Z,7.10
2019-01-04T18:03:43.533Z,6.80
2019-01-04T18:06:12.240Z,7.20
2019-01-04T18:08:40.962Z,7.20
2019-01-04T18:11:09.654Z,7.20
2019-01-04T18:13:38.332Z,7.00
2019-01-04T18:16:07.042Z,6.90
2019-01-04T18:18:35.846Z,7.30
2019-01-04T18:21:04.744Z,7.00
2019-01-04T18:23:33.490Z,7.20
2019-01-04T18:26:02.254Z,7.30
2019-01-04T18:28:30.958Z,7.20
2019-01-04T18:30:59.664Z,7.20
2019-01-04T18:33:28.423Z,7.30
2019-01-04T18:35:57.208Z,7.20
2019-01-04T18:38:25.924Z,7.00
2019-01-04T18:40:54.670Z,7.20
2019-01-04T18:43:23.852Z,7.10
2019-01-04T18:45:52.561Z,7.10
2019-01-04T18:48:21.305Z,7.00
2019-01-04T18:50:51.601Z,7.20
2019-01-04T18:53:20.283Z,7.20
2019-01-04T18:55:48.950Z,7.00
2019-01-04T18:58:17.699Z,7.30
2019-01-04T19:00:46.379Z,7.00
2019-01-04T19:03:15.102Z,7.20
2019-01-04T19:05:43.861Z,7.00
2019-01-04T19:08:12.779Z,7.20
2019-01-04T19:10:41.680Z,7.50
2019-01-04T19:13:10.383Z,7.40
2019-01-04T19:15:39.098Z,7.30
2019-01-04T19:18:07.801Z,7.60
2019-01-04T19:20:36.529Z,7.50
2019-01-04T19:23:05.237Z,7.40
2019-01-04T19:25:33.943Z,7.40
2019-01-04T19:28:02.676Z,7.50
2019-01-04T19:30:31.434Z,7.70
2019-01-04T19:33:00.138Z,7.40
2019-01-04T19:35:29.138Z,7.30
2019-01-04T19:37:57.866Z,7.70
2019-01-04T19:40:26.645Z,7.70
2019-01-04T19:42:55.400Z,7.70
2019-01-04T19:45:24.121Z,7.50
2019-01-04T19:47:52.856Z,7.80
2019-01-04T19:50:22.403Z,7.80
2019-01-04T19:52:51.103Z,7.60
2019-01-04T19:55:19.802Z,7.40
2019-01-04T19:57:48.588Z,7.60
2019-01-04T20:00:17.406Z,7.60
2019-01-04T20:02:46.145Z,7.60
2019-01-04T20:05:14.952Z,7.70
2019-01-04T20:08:09.496Z,7.40
2019-01-04T20:10:57.700Z,7.60
2019-01-04T20:13:36.972Z,7.70
2019-01-04T20:16:32.383Z,7.80
2019-01-04T20:19:11.601Z,7.50
2019-01-04T20:21:44.726Z,7.40
2019-01-04T20:24:23.709Z,7.70
2019-01-04T20:26:59.812Z,7.70
2019-01-04T20:29:48.013Z,7.60
2019-01-04T20:32:26.827Z,7.60
2019-01-04T20:34:59.890Z,7.40
2019-01-04T20:37:38.785Z,7.70
2019-01-04T20:40:21.155Z,7.60
2019-01-04T20:42:54.249Z,7.60
2019-01-04T20:45:30.119Z,7.60
2019-01-04T20:48:12.461Z,7.60
2019-01-04T20:50:45.712Z,7.70
2019-01-04T20:53:24.865Z,7.80
2019-01-04T20:56:11.412Z,7.90
2019-01-04T20:58:53.861Z,8.10
2019-01-04T21:01:39.309Z,7.80
2019-01-04T21:04:25.957Z,7.80
2019-01-04T21:06:56.209Z,8.00
2019-01-04T21:09:33.009Z,7.90
2019-01-04T21:12:19.880Z,8.00
2019-01-04T21:15:06.556Z,8.10
2019-01-04T21:17:51.648Z,8.00
2019-01-04T21:20:24.697Z,8.00
2019-01-04T21:22:54.946Z,8.20
2019-01-04T21:25:33.887Z,8.00
2019-01-04T21:28:20.471Z,8.10
2019-01-04T21:31:02.569Z,8.10
2019-01-04T21:33:45.031Z,8.00
2019-01-04T21:36:15.324Z,8.00
2019-01-04T21:38:45.573Z,8.30
2019-01-04T21:41:32.022Z,8.10
2019-01-04T21:44:02.269Z,8.20
2019-01-04T21:46:35.233Z,8.10
2019-01-04T21:49:21.692Z,8.40
2019-01-04T21:51:52.227Z,8.10
2019-01-04T21:54:31.215Z,8.10
2019-01-04T21:57:01.611Z,8.10
2019-01-04T21:59:34.454Z,8.10
2019-01-04T22:02:10.884Z,8.20
2019-01-04T22:04:50.048Z,7.90
2019-01-04T22:07:29.275Z,8.30
2019-01-04T22:10:08.019Z,8.00
2019-01-04T22:12:53.391Z,8.10
2019-01-04T22:15:26.545Z,8.00
2019-01-04T22:17:56.815Z,7.80
2019-01-04T22:20:39.542Z,8.00
2019-01-04T22:23:26.221Z,8.10
2019-01-04T22:25:56.497Z,8.00
2019-01-04T22:28:27.292Z,8.40
2019-01-04T22:30:57.531Z,8.20
2019-01-04T22:33:27.869Z,8.10
2019-01-04T22:36:14.418Z,8.50
2019-01-04T22:38:50.687Z,8.40
2019-01-04T22:41:37.188Z,8.30
2019-01-04T22:44:19.726Z,8.50
2019-01-04T22:46:53.050Z,8.40
2019-01-04T22:49:35.834Z,8.10
2019-01-04T22:52:22.258Z,8.10
2019-01-04T22:54:58.629Z,8.30
2019-01-04T22:57:34.840Z,8.00
2019-01-04T23:00:23.507Z,7.90
2019-01-04T23:02:56.603Z,7.90
2019-01-04T23:05:29.555Z,7.80
2019-01-04T23:08:12.082Z,8.00
2019-01-04T23:10:45.179Z,7.80
2019-01-04T23:13:15.434Z,7.90
2019-01-04T23:16:02.183Z,7.90
2019-01-04T23:18:44.651Z,8.10
2019-01-04T23:22:04.846Z,8.10
2019-01-04T23:24:51.673Z,8.00
2019-01-04T23:27:33.979Z,8.00
2019-01-04T23:30:20.889Z,7.80
2019-01-04T23:33:00.515Z,7.80
2019-01-04T23:35:36.492Z,7.80
2019-01-04T23:38:06.872Z,7.80
2019-01-04T23:40:52.348Z,7.90
2019-01-04T23:43:38.766Z,7.80
2019-01-04T23:46:21.101Z,8.10
2019-01-04T23:49:06.696Z,8.10
2019-01-04T23:51:53.070Z,8.30
2019-01-04T23:54:39.856Z,8.10
2019-01-04T23:57:12.899Z,8.00
2019-01-04T23:59:57.999Z,8.20
